Terminal Aerodrome Forecast
Issued by NWS Cleveland, OH

Home | Current Version | Previous Version | Graphics & Text | Print | Product List | Glossary On
Versions: 1 2 3 4 5 6 7 8 9 10 11 12 13 14 15 16 17 18
618
FTUS41 KCLE 281126
TAFTOL
TAF
KTOL 281126Z 2812/2912 12004KT P6SM VCSH SCT035 OVC050
     FM281400 09006KT 6SM -RA BR SCT025 OVC035
      TEMPO 2815/2818 4SM -RA BR BKN015 OVC025
     FM290100 05005KT P6SM SCT015 OVC025
     FM290500 03005KT 6SM BR SCT025 OVC035=

USA.gov is the U.S. government's official web portal to all federal, state and local government web resources and services.